sensor_id;sensor_type;location;lat;lon;timestamp;P1;P2;P0
76238;PMS7003;65043;48.392;-4.472;2023-12-07T00:00:53;0.25;0.25;0.00
76238;PMS7003;65043;48.392;-4.472;2023-12-07T00:03:30;5.00;3.00;1.25
76238;PMS7003;65043;48.392;-4.472;2023-12-07T00:05:58;4.00;2.00;1.00
76238;PMS7003;65043;48.392;-4.472;2023-12-07T00:08:32;2.75;2.75;1.75
76238;PMS7003;65043;48.392;-4.472;2023-12-07T00:11:11;1.00;1.00;1.00
76238;PMS7003;65043;48.392;-4.472;2023-12-07T00:13:53;2.00;2.00;1.00
76238;PMS7003;65043;48.392;-4.472;2023-12-07T00:16:49;3.50;2.25;1.25
76238;PMS7003;65043;48.392;-4.472;2023-12-07T00:19:23;5.00;2.50;2.00
76238;PMS7003;65043;48.392;-4.472;2023-12-07T00:21:59;3.25;2.75;1.00
76238;PMS7003;65043;48.392;-4.472;2023-12-07T00:24:32;2.00;2.00;1.00
76238;PMS7003;65043;48.392;-4.472;2023-12-07T00:26:58;3.25;1.25;0.00
76238;PMS7003;65043;48.392;-4.472;2023-12-07T00:29:26;1.00;1.00;0.50
76238;PMS7003;65043;48.392;-4.472;2023-12-07T00:32:01;1.50;1.00;0.75
76238;PMS7003;65043;48.392;-4.472;2023-12-07T00:34:41;2.50;2.00;0.50
76238;PMS7003;65043;48.392;-4.472;2023-12-07T00:37:20;2.25;2.00;1.00
76238;PMS7003;65043;48.392;-4.472;2023-12-07T00:39:48;1.50;0.75;0.00
76238;PMS7003;65043;48.392;-4.472;2023-12-07T00:42:33;4.50;1.00;0.00
76238;PMS7003;65043;48.392;-4.472;2023-12-07T00:45:00;3.00;1.00;0.00
76238;PMS7003;65043;48.392;-4.472;2023-12-07T00:47:29;4.00;1.00;0.00
76238;PMS7003;65043;48.392;-4.472;2023-12-07T00:49:57;2.00;1.25;0.00
76238;PMS7003;65043;48.392;-4.472;2023-12-07T00:52:31;1.75;1.75;1.00
76238;PMS7003;65043;48.392;-4.472;2023-12-07T00:54:57;1.50;0.75;0.00
76238;PMS7003;65043;48.392;-4.472;2023-12-07T00:57:34;2.00;1.00;0.00
76238;PMS7003;65043;48.392;-4.472;2023-12-07T01:00:06;0.00;0.00;0.00
76238;PMS7003;65043;48.392;-4.472;2023-12-07T01:02:33;1.00;1.00;0.00
76238;PMS7003;65043;48.392;-4.472;2023-12-07T01:04:59;1.00;1.00;0.00
76238;PMS7003;65043;48.392;-4.472;2023-12-07T01:07:29;3.00;0.50;0.00
76238;PMS7003;65043;48.392;-4.472;2023-12-07T01:10:03;1.00;1.00;1.00
76238;PMS7003;65043;48.392;-4.472;2023-12-07T01:12:59;2.00;0.25;0.00
76238;PMS7003;65043;48.392;-4.472;2023-12-07T01:15:27;2.00;1.00;0.75
76238;PMS7003;65043;48.392;-4.472;2023-12-07T01:17:55;2.00;1.00;0.75
76238;PMS7003;65043;48.392;-4.472;2023-12-07T01:20:25;0.00;0.00;0.00
76238;PMS7003;65043;48.392;-4.472;2023-12-07T01:23:04;3.75;1.75;0.00
76238;PMS7003;65043;48.392;-4.472;2023-12-07T01:25:29;0.75;0.00;0.00
76238;PMS7003;65043;48.392;-4.472;2023-12-07T01:27:56;1.00;0.50;0.00
76238;PMS7003;65043;48.392;-4.472;2023-12-07T01:30:21;2.25;1.25;1.00
76238;PMS7003;65043;48.392;-4.472;2023-12-07T01:32:47;3.25;0.00;0.00
76238;PMS7003;65043;48.392;-4.472;2023-12-07T01:35:17;0.00;0.00;0.00
76238;PMS7003;65043;48.392;-4.472;2023-12-07T01:37:44;1.00;1.00;0.00
76238;PMS7003;65043;48.392;-4.472;2023-12-07T01:40:09;1.75;1.00;0.00
76238;PMS7003;65043;48.392;-4.472;2023-12-07T01:42:36;0.75;0.00;0.00
76238;PMS7003;65043;48.392;-4.472;2023-12-07T01:45:02;0.00;0.00;0.00
76238;PMS7003;65043;48.392;-4.472;2023-12-07T01:47:31;2.75;2.00;0.50
76238;PMS7003;65043;48.392;-4.472;2023-12-07T01:50:00;4.25;1.00;0.00
76238;PMS7003;65043;48.392;-4.472;2023-12-07T01:52:47;0.00;0.00;0.00
76238;PMS7003;65043;48.392;-4.472;2023-12-07T01:55:37;1.00;1.00;0.00
76238;PMS7003;65043;48.392;-4.472;2023-12-07T01:58:03;0.00;0.00;0.00
76238;PMS7003;65043;48.392;-4.472;2023-12-07T02:00:29;2.00;1.00;0.00
76238;PMS7003;65043;48.392;-4.472;2023-12-07T02:03:05;0.50;0.00;0.00
76238;PMS7003;65043;48.392;-4.472;2023-12-07T02:05:35;1.00;1.00;0.00
76238;PMS7003;65043;48.392;-4.472;2023-12-07T02:08:08;0.00;0.00;0.00
76238;PMS7003;65043;48.392;-4.472;2023-12-07T02:10:36;2.75;1.00;0.00
76238;PMS7003;65043;48.392;-4.472;2023-12-07T02:13:01;3.50;1.00;0.00
76238;PMS7003;65043;48.392;-4.472;2023-12-07T02:15:30;1.00;0.00;0.00
76238;PMS7003;65043;48.392;-4.472;2023-12-07T02:18:16;0.00;0.00;0.00
76238;PMS7003;65043;48.392;-4.472;2023-12-07T02:20:58;0.75;0.00;0.00
76238;PMS7003;65043;48.392;-4.472;2023-12-07T02:23:38;0.50;0.50;0.00
76238;PMS7003;65043;48.392;-4.472;2023-12-07T02:26:08;0.75;0.00;0.00
76238;PMS7003;65043;48.392;-4.472;2023-12-07T02:28:36;2.00;0.00;0.00
76238;PMS7003;65043;48.392;-4.472;2023-12-07T02:31:02;2.00;1.00;0.00
76238;PMS7003;65043;48.392;-4.472;2023-12-07T02:33:40;3.50;1.25;0.00
76238;PMS7003;65043;48.392;-4.472;2023-12-07T02:36:05;0.00;0.00;0.00
76238;PMS7003;65043;48.392;-4.472;2023-12-07T02:38:34;0.50;0.00;0.00
76238;PMS7003;65043;48.392;-4.472;2023-12-07T02:41:03;0.00;0.00;0.00
76238;PMS7003;65043;48.392;-4.472;2023-12-07T02:43:40;0.75;0.00;0.00
76238;PMS7003;65043;48.392;-4.472;2023-12-07T02:46:08;0.00;0.00;0.00
76238;PMS7003;65043;48.392;-4.472;2023-12-07T02:48:33;1.75;1.00;0.00
76238;PMS7003;65043;48.392;-4.472;2023-12-07T02:51:01;0.50;0.00;0.00
76238;PMS7003;65043;48.392;-4.472;2023-12-07T02:53:29;0.50;0.50;0.50
76238;PMS7003;65043;48.392;-4.472;2023-12-07T02:56:02;2.00;1.00;0.00
76238;PMS7003;65043;48.392;-4.472;2023-12-07T02:58:48;0.00;0.00;0.00
76238;PMS7003;65043;48.392;-4.472;2023-12-07T03:01:16;2.25;0.00;0.00
76238;PMS7003;65043;48.392;-4.472;2023-12-07T03:03:42;0.00;0.00;0.00
76238;PMS7003;65043;48.392;-4.472;2023-12-07T03:09:02;4.00;0.25;0.00
76238;PMS7003;65043;48.392;-4.472;2023-12-07T03:11:28;1.00;1.00;0.00
76238;PMS7003;65043;48.392;-4.472;2023-12-07T03:13:53;1.00;0.50;0.00
76238;PMS7003;65043;48.392;-4.472;2023-12-07T03:16:25;0.00;0.00;0.00
76238;PMS7003;65043;48.392;-4.472;2023-12-07T03:18:51;1.50;0.25;0.00
76238;PMS7003;65043;48.392;-4.472;2023-12-07T03:21:16;0.75;0.00;0.00
76238;PMS7003;65043;48.392;-4.472;2023-12-07T03:23:45;1.00;1.00;0.00
76238;PMS7003;65043;48.392;-4.472;2023-12-07T03:26:12;0.00;0.00;0.00
76238;PMS7003;65043;48.392;-4.472;2023-12-07T03:28:50;0.00;0.00;0.00
76238;PMS7003;65043;48.392;-4.472;2023-12-07T03:31:24;1.00;1.00;0.00
76238;PMS7003;65043;48.392;-4.472;2023-12-07T03:33:50;1.00;0.00;0.00
76238;PMS7003;65043;48.392;-4.472;2023-12-07T03:36:15;1.50;0.50;0.00
76238;PMS7003;65043;48.392;-4.472;2023-12-07T03:38:42;1.00;1.00;0.00
76238;PMS7003;65043;48.392;-4.472;2023-12-07T03:41:07;0.00;0.00;0.00
76238;PMS7003;65043;48.392;-4.472;2023-12-07T03:43:35;0.00;0.00;0.00
76238;PMS7003;65043;48.392;-4.472;2023-12-07T03:46:05;0.75;0.00;0.00
76238;PMS7003;65043;48.392;-4.472;2023-12-07T03:48:36;1.00;0.00;0.00
76238;PMS7003;65043;48.392;-4.472;2023-12-07T03:51:02;0.25;0.25;0.00
76238;PMS7003;65043;48.392;-4.472;2023-12-07T03:54:04;0.50;0.50;0.00
76238;PMS7003;65043;48.392;-4.472;2023-12-07T03:56:31;0.00;0.00;0.00
76238;PMS7003;65043;48.392;-4.472;2023-12-07T03:59:00;1.00;1.00;0.00
76238;PMS7003;65043;48.392;-4.472;2023-12-07T04:01:31;2.00;1.00;0.00
76238;PMS7003;65043;48.392;-4.472;2023-12-07T04:03:57;5.75;2.00;0.00
76238;PMS7003;65043;48.392;-4.472;2023-12-07T04:06:28;5.25;1.00;0.00
76238;PMS7003;65043;48.392;-4.472;2023-12-07T04:08:54;4.50;2.75;1.00
76238;PMS7003;65043;48.392;-4.472;2023-12-07T04:11:19;3.50;1.75;0.75
76238;PMS7003;65043;48.392;-4.472;2023-12-07T04:13:46;2.00;1.00;0.00
76238;PMS7003;65043;48.392;-4.472;2023-12-07T04:16:17;3.00;1.50;1.00
76238;PMS7003;65043;48.392;-4.472;2023-12-07T04:18:56;3.00;2.25;1.00
76238;PMS7003;65043;48.392;-4.472;2023-12-07T04:21:22;0.25;0.25;0.25
76238;PMS7003;65043;48.392;-4.472;2023-12-07T04:23:47;4.25;3.00;0.75
76238;PMS7003;65043;48.392;-4.472;2023-12-07T04:26:13;4.75;1.00;0.00
76238;PMS7003;65043;48.392;-4.472;2023-12-07T04:28:41;2.50;2.00;1.00
76238;PMS7003;65043;48.392;-4.472;2023-12-07T04:31:12;6.00;0.75;0.00
76238;PMS7003;65043;48.392;-4.472;2023-12-07T04:33:53;3.00;2.00;1.00
76238;PMS7003;65043;48.392;-4.472;2023-12-07T04:36:24;2.00;2.00;1.00
76238;PMS7003;65043;48.392;-4.472;2023-12-07T04:38:57;3.75;2.00;1.00
76238;PMS7003;65043;48.392;-4.472;2023-12-07T04:41:25;5.75;1.00;0.75
76238;PMS7003;65043;48.392;-4.472;2023-12-07T04:43:53;3.00;2.00;1.25
76238;PMS7003;65043;48.392;-4.472;2023-12-07T04:46:19;1.00;1.00;0.25
76238;PMS7003;65043;48.392;-4.472;2023-12-07T04:48:45;6.75;4.00;1.00
76238;PMS7003;65043;48.392;-4.472;2023-12-07T04:51:10;2.25;1.75;1.00
76238;PMS7003;65043;48.392;-4.472;2023-12-07T04:53:36;2.00;0.75;0.00
76238;PMS7003;65043;48.392;-4.472;2023-12-07T04:56:04;2.75;2.00;0.50
76238;PMS7003;65043;48.392;-4.472;2023-12-07T05:01:24;4.50;1.00;1.00
76238;PMS7003;65043;48.392;-4.472;2023-12-07T05:03:52;2.00;0.75;0.25
76238;PMS7003;65043;48.392;-4.472;2023-12-07T05:06:28;1.00;1.00;0.00
76238;PMS7003;65043;48.392;-4.472;2023-12-07T05:08:56;1.00;0.00;0.00
76238;PMS7003;65043;48.392;-4.472;2023-12-07T05:11:23;4.50;2.00;0.75
76238;PMS7003;65043;48.392;-4.472;2023-12-07T05:13:59;2.25;2.00;0.00
76238;PMS7003;65043;48.392;-4.472;2023-12-07T05:16:25;3.00;2.00;1.00
76238;PMS7003;65043;48.392;-4.472;2023-12-07T05:18:50;4.00;3.00;1.00
76238;PMS7003;65043;48.392;-4.472;2023-12-07T05:21:16;5.25;2.50;1.00
76238;PMS7003;65043;48.392;-4.472;2023-12-07T05:23:41;2.25;1.25;0.00
76238;PMS7003;65043;48.392;-4.472;2023-12-07T05:26:09;6.50;1.75;0.25
76238;PMS7003;65043;48.392;-4.472;2023-12-07T05:28:37;5.75;1.00;0.00
76238;PMS7003;65043;48.392;-4.472;2023-12-07T05:31:03;3.50;1.00;1.00
76238;PMS7003;65043;48.392;-4.472;2023-12-07T05:33:28;3.25;2.25;1.00
76238;PMS7003;65043;48.392;-4.472;2023-12-07T05:35:54;1.00;0.00;0.00
76238;PMS7003;65043;48.392;-4.472;2023-12-07T05:38:19;3.00;1.00;1.00
76238;PMS7003;65043;48.392;-4.472;2023-12-07T05:40:48;3.50;1.00;1.00
76238;PMS7003;65043;48.392;-4.472;2023-12-07T05:43:13;2.75;0.25;0.00
76238;PMS7003;65043;48.392;-4.472;2023-12-07T05:45:39;1.50;1.50;0.75
76238;PMS7003;65043;48.392;-4.472;2023-12-07T05:48:06;1.00;0.25;0.25
76238;PMS7003;65043;48.392;-4.472;2023-12-07T05:50:31;2.25;1.00;0.00
76238;PMS7003;65043;48.392;-4.472;2023-12-07T05:52:57;2.75;2.00;1.00
76238;PMS7003;65043;48.392;-4.472;2023-12-07T05:55:42;1.00;1.00;0.00
76238;PMS7003;65043;48.392;-4.472;2023-12-07T05:58:19;2.50;0.00;0.00
76238;PMS7003;65043;48.392;-4.472;2023-12-07T06:00:45;1.00;1.00;0.25
76238;PMS7003;65043;48.392;-4.472;2023-12-07T06:03:12;1.00;1.00;0.00
76238;PMS7003;65043;48.392;-4.472;2023-12-07T06:05:41;7.00;5.75;2.75
76238;PMS7003;65043;48.392;-4.472;2023-12-07T06:08:17;1.25;1.00;0.00
76238;PMS7003;65043;48.392;-4.472;2023-12-07T06:13:31;3.25;1.50;0.25
76238;PMS7003;65043;48.392;-4.472;2023-12-07T06:15:56;2.00;0.00;0.00
76238;PMS7003;65043;48.392;-4.472;2023-12-07T06:18:42;2.50;1.00;0.00
76238;PMS7003;65043;48.392;-4.472;2023-12-07T06:21:08;0.75;0.00;0.00
76238;PMS7003;65043;48.392;-4.472;2023-12-07T06:23:43;0.50;0.00;0.00
76238;PMS7003;65043;48.392;-4.472;2023-12-07T06:26:36;1.25;1.00;0.00
76238;PMS7003;65043;48.392;-4.472;2023-12-07T06:29:01;1.00;0.75;0.00
76238;PMS7003;65043;48.392;-4.472;2023-12-07T06:31:36;1.25;0.00;0.00
76238;PMS7003;65043;48.392;-4.472;2023-12-07T06:34:01;1.00;0.25;0.25
76238;PMS7003;65043;48.392;-4.472;2023-12-07T06:36:27;0.75;0.00;0.00
76238;PMS7003;65043;48.392;-4.472;2023-12-07T06:38:53;0.75;0.00;0.00
76238;PMS7003;65043;48.392;-4.472;2023-12-07T06:41:24;1.00;1.00;1.00
76238;PMS7003;65043;48.392;-4.472;2023-12-07T06:43:49;0.25;0.25;0.00
76238;PMS7003;65043;48.392;-4.472;2023-12-07T06:46:17;1.00;0.00;0.00
76238;PMS7003;65043;48.392;-4.472;2023-12-07T06:48:43;0.00;0.00;0.00
76238;PMS7003;65043;48.392;-4.472;2023-12-07T06:51:13;1.00;1.00;0.00
76238;PMS7003;65043;48.392;-4.472;2023-12-07T06:53:44;1.00;1.00;0.00
76238;PMS7003;65043;48.392;-4.472;2023-12-07T06:56:09;2.00;1.00;0.00
76238;PMS7003;65043;48.392;-4.472;2023-12-07T06:58:35;0.00;0.00;0.00
76238;PMS7003;65043;48.392;-4.472;2023-12-07T07:01:01;0.00;0.00;0.00
76238;PMS7003;65043;48.392;-4.472;2023-12-07T07:03:27;0.25;0.25;0.00
76238;PMS7003;65043;48.392;-4.472;2023-12-07T07:05:55;2.00;0.00;0.00
76238;PMS7003;65043;48.392;-4.472;2023-12-07T07:08:20;1.00;1.00;0.00
76238;PMS7003;65043;48.392;-4.472;2023-12-07T07:10:46;3.00;0.00;0.00
76238;PMS7003;65043;48.392;-4.472;2023-12-07T07:13:14;1.00;1.00;0.00
76238;PMS7003;65043;48.392;-4.472;2023-12-07T07:15:45;0.00;0.00;0.00
76238;PMS7003;65043;48.392;-4.472;2023-12-07T07:18:11;11.00;6.00;3.25
76238;PMS7003;65043;48.392;-4.472;2023-12-07T07:20:36;1.50;0.00;0.00
76238;PMS7003;65043;48.392;-4.472;2023-12-07T07:23:02;0.75;0.75;0.00
76238;PMS7003;65043;48.392;-4.472;2023-12-07T07:25:27;0.00;0.00;0.00
76238;PMS7003;65043;48.392;-4.472;2023-12-07T07:27:53;0.00;0.00;0.00
76238;PMS7003;65043;48.392;-4.472;2023-12-07T07:30:19;1.00;0.00;0.00
76238;PMS7003;65043;48.392;-4.472;2023-12-07T07:32:48;1.00;1.00;0.00
76238;PMS7003;65043;48.392;-4.472;2023-12-07T07:35:16;0.00;0.00;0.00
76238;PMS7003;65043;48.392;-4.472;2023-12-07T07:37:42;2.50;0.25;0.00
76238;PMS7003;65043;48.392;-4.472;2023-12-07T07:40:10;2.00;0.75;0.00
76238;PMS7003;65043;48.392;-4.472;2023-12-07T07:42:39;0.25;0.25;0.00
76238;PMS7003;65043;48.392;-4.472;2023-12-07T07:45:08;0.00;0.00;0.00
76238;PMS7003;65043;48.392;-4.472;2023-12-07T07:47:35;3.00;0.00;0.00
76238;PMS7003;65043;48.392;-4.472;2023-12-07T07:50:06;0.75;0.00;0.00
76238;PMS7003;65043;48.392;-4.472;2023-12-07T07:52:32;0.00;0.00;0.00
76238;PMS7003;65043;48.392;-4.472;2023-12-07T07:55:03;1.00;0.00;0.00
76238;PMS7003;65043;48.392;-4.472;2023-12-07T07:57:30;1.00;0.00;0.00
76238;PMS7003;65043;48.392;-4.472;2023-12-07T07:59:58;1.00;0.25;0.00
76238;PMS7003;65043;48.392;-4.472;2023-12-07T08:02:24;0.00;0.00;0.00
76238;PMS7003;65043;48.392;-4.472;2023-12-07T08:04:49;2.25;1.00;0.00
76238;PMS7003;65043;48.392;-4.472;2023-12-07T08:07:24;0.50;0.50;0.00
76238;PMS7003;65043;48.392;-4.472;2023-12-07T08:09:49;0.00;0.00;0.00
76238;PMS7003;65043;48.392;-4.472;2023-12-07T08:12:15;0.00;0.00;0.00
76238;PMS7003;65043;48.392;-4.472;2023-12-07T08:14:40;0.25;0.25;0.00
76238;PMS7003;65043;48.392;-4.472;2023-12-07T08:17:21;2.00;1.00;0.00
76238;PMS7003;65043;48.392;-4.472;2023-12-07T08:26:06;1.00;0.75;0.00
76238;PMS7003;65043;48.392;-4.472;2023-12-07T08:28:43;0.50;0.00;0.00
76238;PMS7003;65043;48.392;-4.472;2023-12-07T08:31:36;1.00;0.50;0.00
76238;PMS7003;65043;48.392;-4.472;2023-12-07T08:34:54;1.00;0.00;0.00
76238;PMS7003;65043;48.392;-4.472;2023-12-07T08:37:58;1.25;0.00;0.00
76238;PMS7003;65043;48.392;-4.472;2023-12-07T08:40:26;2.00;0.00;0.00
76238;PMS7003;65043;48.392;-4.472;2023-12-07T09:28:27;1.75;0.00;0.00
76238;PMS7003;65043;48.392;-4.472;2023-12-07T09:40:52;1.00;0.00;0.00
76238;PMS7003;65043;48.392;-4.472;2023-12-07T09:43:29;0.00;0.00;0.00
76238;PMS7003;65043;48.392;-4.472;2023-12-07T09:45:55;0.00;0.00;0.00
76238;PMS7003;65043;48.392;-4.472;2023-12-07T10:18:51;0.25;0.25;0.00
76238;PMS7003;65043;48.392;-4.472;2023-12-07T10:21:42;0.00;0.00;0.00
76238;PMS7003;65043;48.392;-4.472;2023-12-07T10:28:14;1.75;1.75;0.00
76238;PMS7003;65043;48.392;-4.472;2023-12-07T10:42:09;1.00;1.00;0.00
76238;PMS7003;65043;48.392;-4.472;2023-12-07T10:45:10;0.00;0.00;0.00
76238;PMS7003;65043;48.392;-4.472;2023-12-07T10:51:41;0.50;0.50;0.00
76238;PMS7003;65043;48.392;-4.472;2023-12-07T11:04:24;0.00;0.00;0.00
76238;PMS7003;65043;48.392;-4.472;2023-12-07T11:07:01;1.50;0.00;0.00
76238;PMS7003;65043;48.392;-4.472;2023-12-07T11:09:35;0.00;0.00;0.00
76238;PMS7003;65043;48.392;-4.472;2023-12-07T11:13:05;2.50;0.00;0.00
76238;PMS7003;65043;48.392;-4.472;2023-12-07T11:32:43;0.00;0.00;0.00
76238;PMS7003;65043;48.392;-4.472;2023-12-07T11:35:11;0.25;0.00;0.00
76238;PMS7003;65043;48.392;-4.472;2023-12-07T11:40:39;0.00;0.00;0.00
76238;PMS7003;65043;48.392;-4.472;2023-12-07T11:45:58;1.00;0.00;0.00
76238;PMS7003;65043;48.392;-4.472;2023-12-07T11:48:29;3.00;1.25;0.00
76238;PMS7003;65043;48.392;-4.472;2023-12-07T12:05:25;0.00;0.00;0.00
76238;PMS7003;65043;48.392;-4.472;2023-12-07T12:32:14;0.25;0.00;0.00
76238;PMS7003;65043;48.392;-4.472;2023-12-07T12:38:24;3.75;1.00;0.00
76238;PMS7003;65043;48.392;-4.472;2023-12-07T12:41:17;1.00;1.00;0.00
76238;PMS7003;65043;48.392;-4.472;2023-12-07T13:18:47;4.25;3.00;2.00
76238;PMS7003;65043;48.392;-4.472;2023-12-07T13:28:24;9.50;6.25;3.00
76238;PMS7003;65043;48.392;-4.472;2023-12-07T13:31:12;10.25;7.00;3.00
76238;PMS7003;65043;48.392;-4.472;2023-12-07T13:33:47;8.75;4.75;3.00
76238;PMS7003;65043;48.392;-4.472;2023-12-07T13:36:23;7.50;5.00;2.75
76238;PMS7003;65043;48.392;-4.472;2023-12-07T13:38:51;7.00;5.25;3.00
76238;PMS7003;65043;48.392;-4.472;2023-12-07T13:41:27;13.00;7.50;3.75
76238;PMS7003;65043;48.392;-4.472;2023-12-07T13:43:53;8.50;6.75;3.00
76238;PMS7003;65043;48.392;-4.472;2023-12-07T13:46:21;10.00;5.25;3.00
76238;PMS7003;65043;48.392;-4.472;2023-12-07T13:48:48;13.25;8.00;3.75
76238;PMS7003;65043;48.392;-4.472;2023-12-07T13:51:14;12.50;4.75;2.50
76238;PMS7003;65043;48.392;-4.472;2023-12-07T13:53:40;13.25;6.75;2.25
76238;PMS7003;65043;48.392;-4.472;2023-12-07T13:56:06;10.25;7.25;3.00
76238;PMS7003;65043;48.392;-4.472;2023-12-07T13:58:33;15.00;9.00;2.00
76238;PMS7003;65043;48.392;-4.472;2023-12-07T14:01:00;9.50;6.00;3.00
76238;PMS7003;65043;48.392;-4.472;2023-12-07T14:03:28;9.00;6.00;3.00
76238;PMS7003;65043;48.392;-4.472;2023-12-07T14:05:57;9.25;6.25;3.00
76238;PMS7003;65043;48.392;-4.472;2023-12-07T14:08:22;9.75;5.50;3.50
76238;PMS7003;65043;48.392;-4.472;2023-12-07T14:10:50;8.50;7.75;3.50
76238;PMS7003;65043;48.392;-4.472;2023-12-07T14:13:20;14.50;8.00;2.50
76238;PMS7003;65043;48.392;-4.472;2023-12-07T14:15:51;13.25;8.75;4.00
76238;PMS7003;65043;48.392;-4.472;2023-12-07T14:18:37;13.50;7.00;3.25
76238;PMS7003;65043;48.392;-4.472;2023-12-07T14:21:28;12.25;10.00;4.00
76238;PMS7003;65043;48.392;-4.472;2023-12-07T14:24:09;14.50;7.00;3.75
76238;PMS7003;65043;48.392;-4.472;2023-12-07T14:26:43;11.50;6.00;3.00
76238;PMS7003;65043;48.392;-4.472;2023-12-07T14:29:21;10.50;7.50;3.75
76238;PMS7003;65043;48.392;-4.472;2023-12-07T14:31:56;15.50;10.00;4.00
76238;PMS7003;65043;48.392;-4.472;2023-12-07T14:34:21;14.25;8.00;3.00
76238;PMS7003;65043;48.392;-4.472;2023-12-07T14:36:52;19.25;8.50;3.75
76238;PMS7003;65043;48.392;-4.472;2023-12-07T14:39:44;17.75;10.75;5.00
76238;PMS7003;65043;48.392;-4.472;2023-12-07T14:42:09;10.00;6.25;3.75
76238;PMS7003;65043;48.392;-4.472;2023-12-07T14:44:42;10.50;8.25;4.00
76238;PMS7003;65043;48.392;-4.472;2023-12-07T14:47:10;17.75;13.25;6.50
76238;PMS7003;65043;48.392;-4.472;2023-12-07T14:49:41;25.50;9.50;3.00
76238;PMS7003;65043;48.392;-4.472;2023-12-07T14:52:09;19.25;12.00;6.00
76238;PMS7003;65043;48.392;-4.472;2023-12-07T14:54:42;14.50;8.00;5.00
76238;PMS7003;65043;48.392;-4.472;2023-12-07T14:57:34;14.50;9.75;5.00
76238;PMS7003;65043;48.392;-4.472;2023-12-07T15:00:13;15.00;7.25;3.00
76238;PMS7003;65043;48.392;-4.472;2023-12-07T15:02:41;14.50;11.00;6.00
76238;PMS7003;65043;48.392;-4.472;2023-12-07T15:05:14;18.50;12.00;5.00
76238;PMS7003;65043;48.392;-4.472;2023-12-07T15:07:43;16.25;12.00;4.75
76238;PMS7003;65043;48.392;-4.472;2023-12-07T15:10:13;14.50;10.00;6.00
76238;PMS7003;65043;48.392;-4.472;2023-12-07T15:13:19;16.50;8.75;4.50
76238;PMS7003;65043;48.392;-4.472;2023-12-07T15:15:44;18.25;12.00;5.00
76238;PMS7003;65043;48.392;-4.472;2023-12-07T15:18:10;16.75;9.50;4.00
76238;PMS7003;65043;48.392;-4.472;2023-12-07T15:20:35;10.75;9.75;4.00
76238;PMS7003;65043;48.392;-4.472;2023-12-07T15:23:17;12.75;8.75;5.00
76238;PMS7003;65043;48.392;-4.472;2023-12-07T15:28:53;16.75;12.25;6.50
76238;PMS7003;65043;48.392;-4.472;2023-12-07T15:31:23;14.00;8.00;4.00
76238;PMS7003;65043;48.392;-4.472;2023-12-07T15:33:49;20.25;13.00;5.00
76238;PMS7003;65043;48.392;-4.472;2023-12-07T15:39:41;21.25;11.00;5.00
76238;PMS7003;65043;48.392;-4.472;2023-12-07T15:42:11;19.75;11.00;6.00
76238;PMS7003;65043;48.392;-4.472;2023-12-07T15:47:50;17.50;10.75;6.00
76238;PMS7003;65043;48.392;-4.472;2023-12-07T15:50:18;22.25;14.50;5.00
76238;PMS7003;65043;48.392;-4.472;2023-12-07T15:52:55;17.75;10.50;4.75
76238;PMS7003;65043;48.392;-4.472;2023-12-07T15:55:24;19.50;10.00;5.00
76238;PMS7003;65043;48.392;-4.472;2023-12-07T15:57:50;26.75;11.50;5.75
76238;PMS7003;65043;48.392;-4.472;2023-12-07T16:00:15;15.25;11.75;5.00
76238;PMS7003;65043;48.392;-4.472;2023-12-07T16:06:26;20.00;14.50;6.00
76238;PMS7003;65043;48.392;-4.472;2023-12-07T16:09:19;20.75;12.50;4.00
76238;PMS7003;65043;48.392;-4.472;2023-12-07T16:11:47;18.00;12.00;6.25
76238;PMS7003;65043;48.392;-4.472;2023-12-07T16:14:15;20.50;14.00;5.00
76238;PMS7003;65043;48.392;-4.472;2023-12-07T16:17:06;20.25;16.25;7.00
76238;PMS7003;65043;48.392;-4.472;2023-12-07T16:19:54;19.25;13.25;5.50
76238;PMS7003;65043;48.392;-4.472;2023-12-07T16:25:37;13.25;10.50;4.00
76238;PMS7003;65043;48.392;-4.472;2023-12-07T16:28:14;16.75;13.75;5.50
76238;PMS7003;65043;48.392;-4.472;2023-12-07T16:30:42;19.75;12.00;4.50
76238;PMS7003;65043;48.392;-4.472;2023-12-07T16:33:26;17.50;11.50;5.75
76238;PMS7003;65043;48.392;-4.472;2023-12-07T17:04:40;22.75;12.25;5.00
76238;PMS7003;65043;48.392;-4.472;2023-12-07T17:07:08;19.25;13.00;7.00
76238;PMS7003;65043;48.392;-4.472;2023-12-07T17:09:44;13.00;10.50;4.75
76238;PMS7003;65043;48.392;-4.472;2023-12-07T17:12:26;18.50;10.75;4.00
76238;PMS7003;65043;48.392;-4.472;2023-12-07T17:14:58;18.50;10.00;5.00
76238;PMS7003;65043;48.392;-4.472;2023-12-07T17:20:28;22.50;11.75;6.25
76238;PMS7003;65043;48.392;-4.472;2023-12-07T17:23:22;24.75;13.50;5.00
76238;PMS7003;65043;48.392;-4.472;2023-12-07T17:28:44;18.25;13.00;6.00
76238;PMS7003;65043;48.392;-4.472;2023-12-07T17:31:14;22.50;13.25;5.00
76238;PMS7003;65043;48.392;-4.472;2023-12-07T17:34:28;24.50;12.00;4.50
76238;PMS7003;65043;48.392;-4.472;2023-12-07T17:37:10;15.50;11.75;4.50
76238;PMS7003;65043;48.392;-4.472;2023-12-07T17:39:38;21.75;11.25;5.75
76238;PMS7003;65043;48.392;-4.472;2023-12-07T17:42:27;19.75;11.25;6.00
76238;PMS7003;65043;48.392;-4.472;2023-12-07T17:44:56;15.25;11.50;6.00
76238;PMS7003;65043;48.392;-4.472;2023-12-07T17:47:21;21.00;13.50;6.75
76238;PMS7003;65043;48.392;-4.472;2023-12-07T17:55:48;21.75;16.50;7.50
76238;PMS7003;65043;48.392;-4.472;2023-12-07T17:58:27;25.00;18.00;9.00
76238;PMS7003;65043;48.392;-4.472;2023-12-07T18:01:22;18.25;15.25;8.00
76238;PMS7003;65043;48.392;-4.472;2023-12-07T18:15:28;66.50;48.25;25.75
76238;PMS7003;65043;48.392;-4.472;2023-12-07T18:17:54;123.25;102.50;52.00
76238;PMS7003;65043;48.392;-4.472;2023-12-07T18:20:21;67.75;46.25;27.50
76238;PMS7003;65043;48.392;-4.472;2023-12-07T20:27:33;16.50;11.25;5.00
76238;PMS7003;65043;48.392;-4.472;2023-12-07T20:29:59;16.75;12.75;7.00
76238;PMS7003;65043;48.392;-4.472;2023-12-07T20:32:36;19.50;11.25;7.00
76238;PMS7003;65043;48.392;-4.472;2023-12-07T20:35:21;16.75;13.25;7.75
76238;PMS7003;65043;48.392;-4.472;2023-12-07T20:41:15;21.50;19.50;10.25
76238;PMS7003;65043;48.392;-4.472;2023-12-07T20:50:54;22.00;14.50;6.00
76238;PMS7003;65043;48.392;-4.472;2023-12-07T20:57:51;23.50;12.00;7.50
76238;PMS7003;65043;48.392;-4.472;2023-12-07T21:00:54;17.50;12.00;5.50
76238;PMS7003;65043;48.392;-4.472;2023-12-07T21:03:40;16.75;11.00;5.00
76238;PMS7003;65043;48.392;-4.472;2023-12-07T21:06:06;13.75;9.75;4.00
76238;PMS7003;65043;48.392;-4.472;2023-12-07T21:27:44;13.00;8.50;5.00
76238;PMS7003;65043;48.392;-4.472;2023-12-07T21:40:27;11.00;8.00;4.00
76238;PMS7003;65043;48.392;-4.472;2023-12-07T21:42:55;15.00;10.00;4.00
76238;PMS7003;65043;48.392;-4.472;2023-12-07T21:45:25;16.75;9.00;4.00
76238;PMS7003;65043;48.392;-4.472;2023-12-07T21:47:51;18.50;10.50;5.00
76238;PMS7003;65043;48.392;-4.472;2023-12-07T21:56:50;14.75;11.00;5.75
76238;PMS7003;65043;48.392;-4.472;2023-12-07T21:59:55;12.00;8.75;4.00
76238;PMS7003;65043;48.392;-4.472;2023-12-07T22:02:57;19.50;16.25;8.00
76238;PMS7003;65043;48.392;-4.472;2023-12-07T22:05:33;16.75;11.25;4.00
76238;PMS7003;65043;48.392;-4.472;2023-12-07T22:11:14;17.00;10.50;4.00
76238;PMS7003;65043;48.392;-4.472;2023-12-07T22:13:54;16.25;7.00;3.00
76238;PMS7003;65043;48.392;-4.472;2023-12-07T22:16:25;17.50;9.75;5.00
76238;PMS7003;65043;48.392;-4.472;2023-12-07T22:18:51;14.25;8.00;3.00
76238;PMS7003;65043;48.392;-4.472;2023-12-07T22:21:16;23.75;8.00;3.75
76238;PMS7003;65043;48.392;-4.472;2023-12-07T22:23:42;15.50;9.75;4.00
76238;PMS7003;65043;48.392;-4.472;2023-12-07T22:26:10;13.50;7.00;3.00
76238;PMS7003;65043;48.392;-4.472;2023-12-07T22:28:38;11.00;7.25;2.50
76238;PMS7003;65043;48.392;-4.472;2023-12-07T22:31:15;17.25;10.00;3.00
76238;PMS7003;65043;48.392;-4.472;2023-12-07T22:33:46;14.50;8.00;5.00
76238;PMS7003;65043;48.392;-4.472;2023-12-07T22:36:27;13.50;6.50;3.75